Flight Track Log - Related Links

Times and Time Zones

All times are in EDT time to prevent confusion due to time zone crossing. See the N2229F flight status page for this flight to view local times or setup timezone preferences in your user account.

Time Position Orientation Groundspeed Altitude Reporting Facility
EDT Latitude Longitude Course Direction KTS MPH feet Rate Location/Type
Fri 08:01:12 AM 40.9500 -74.3500 180° South 170 196 2,000  Level New York TRACON
Fri 08:02:06 AM 40.9000 -74.3500 180° South 197 227 2,500 737 Climbing New York TRACON
Fri 08:03:06 AM 40.8667 -74.3333 159° South 168 193 3,400 900 Climbing New York TRACON
Fri 08:04:06 AM 40.8167 -74.3167 166° South 159 183 4,300 850 Climbing New York TRACON
Fri 08:05:06 AM 40.7833 -74.3167 180° South 151 174 5,100 600 Climbing New York TRACON
Fri 08:06:06 AM 40.7333 -74.3000 166° South 165 190 5,500 474 Climbing New York TRACON
Fri 08:07:00 AM 40.7000 -74.3000 180° South 155 178 6,000 316 Climbing New York TRACON
Fri 08:08:00 AM 40.6500 -74.3000 180° South 183 211 6,100 50 Climbing New York TRACON
Fri 08:09:00 AM 40.6000 -74.2833 166° South 187 215 6,100  Level New York TRACON
Fri 08:10:00 AM 40.5500 -74.2833 180° South 188 216 6,100  Level New York TRACON
Fri 08:11:00 AM 40.5000 -74.2500 153° Southeast 195 224 6,100 -126 Level New York TRACON
Fri 08:12:00 AM 40.4618 -74.2308 159° South  Level FlightAware Approximate
Fri 08:19:00 AM 40.1867 -74.1500 180° South  Level FlightAware Approximate
Fri 08:20:00 AM 40.1457 -74.1500 180° South  Level FlightAware Approximate
Fri 08:21:00 AM 40.1048 -74.1500 180° South  Level FlightAware Approximate
Fri 08:22:00 AM 40.0639 -74.1508 182° South  Level FlightAware Approximate
Fri 08:23:00 AM 40.0230 -74.1526 182° South  Level FlightAware Approximate
Fri 08:24:00 AM 39.9821 -74.1544 182° South  Level FlightAware Approximate
Fri 08:25:00 AM 39.9379 -74.1563 182° South  Level FlightAware Approximate
Fri 08:26:00 AM 39.8937 -74.1583 182° South  Level FlightAware Approximate
Fri 08:26:39 AM 39.7678 -74.3767 180° South 161 185 4,000  Level Washington Center
Fri 08:27:00 AM 39.8495 -74.1602 182° South  Level FlightAware Approximate
Fri 08:28:00 AM 39.7133 -74.4120 207° Southwest  Level Estimated
Fri 08:28:00 AM 39.8053 -74.1621 182° South  Level FlightAware Approximate
Fri 08:29:00 AM 39.7611 -74.1640 182° South  Level FlightAware Approximate
Fri 08:30:00 AM 39.7169 -74.1659 182° South  Level FlightAware Approximate
Fri 08:30:39 AM 39.6064 -74.4844 207° Southwest 172 198 3,300  Level Washington Center
Fri 08:31:00 AM 39.6726 -74.1667 180° South  Level FlightAware Approximate
Fri 08:32:00 AM 39.5515 -74.5187 232° Southwest  Level Estimated
Fri 08:34:40 AM 39.4647 -74.4867 232° Southwest 147 169 2,000  Level Washington Center
Fri 08:35:00 AM 39.4576 -74.5772 207° Southwest  Level Estimated
Fri 08:36:00 AM 39.4508 -74.5625 257° West  Level FlightAware Approximate
Fri 08:39:00 AM 39.4500 -74.5667 232° Southwest  Level FlightAware Approximate
Fri 08:39:28 AM 39.4058 -74.4500 257° West 119 137 1,700  Level Washington Center
Fri 08:40:00 AM 39.4576 -74.5772 232° Southwest  Level Estimated
Fri 08:43:05 AM 39.4486 -74.5542 298° West 72 83 300  Level Washington Center

Login

Don't have an account? Register now (free) for customized features, flight alerts, and more!